sensor_id;sensor_type;location;lat;lon;timestamp;P1;durP1;ratioP1;P2;durP2;ratioP2
4825;SDS011;2427;50.934;6.776;2023-08-20T00:00:10;4.20;;;3.73;;
4825;SDS011;2427;50.934;6.776;2023-08-20T00:02:36;8.87;;;4.60;;
4825;SDS011;2427;50.934;6.776;2023-08-20T00:05:06;4.87;;;3.60;;
4825;SDS011;2427;50.934;6.776;2023-08-20T00:07:32;3.90;;;3.60;;
4825;SDS011;2427;50.934;6.776;2023-08-20T00:09:58;4.53;;;3.97;;
4825;SDS011;2427;50.934;6.776;2023-08-20T00:12:24;5.10;;;4.30;;
4825;SDS011;2427;50.934;6.776;2023-08-20T00:14:55;10.37;;;5.20;;
4825;SDS011;2427;50.934;6.776;2023-08-20T00:17:23;8.33;;;4.27;;
4825;SDS011;2427;50.934;6.776;2023-08-20T00:19:52;4.57;;;4.17;;
4825;SDS011;2427;50.934;6.776;2023-08-20T00:22:18;5.00;;;4.50;;
4825;SDS011;2427;50.934;6.776;2023-08-20T00:24:46;6.60;;;5.40;;
4825;SDS011;2427;50.934;6.776;2023-08-20T00:27:12;8.83;;;5.20;;
4825;SDS011;2427;50.934;6.776;2023-08-20T00:29:37;9.07;;;4.90;;
4825;SDS011;2427;50.934;6.776;2023-08-20T00:32:03;5.53;;;5.03;;
4825;SDS011;2427;50.934;6.776;2023-08-20T00:34:29;9.17;;;6.33;;
4825;SDS011;2427;50.934;6.776;2023-08-20T00:36:54;6.03;;;5.43;;
4825;SDS011;2427;50.934;6.776;2023-08-20T00:39:20;9.07;;;5.00;;
4825;SDS011;2427;50.934;6.776;2023-08-20T00:41:45;7.10;;;6.00;;
4825;SDS011;2427;50.934;6.776;2023-08-20T00:44:11;9.60;;;6.13;;
4825;SDS011;2427;50.934;6.776;2023-08-20T00:46:36;11.93;;;7.97;;
4825;SDS011;2427;50.934;6.776;2023-08-20T00:49:02;8.87;;;6.10;;
4825;SDS011;2427;50.934;6.776;2023-08-20T00:51:28;8.97;;;7.23;;
4825;SDS011;2427;50.934;6.776;2023-08-20T00:53:54;8.30;;;7.37;;
4825;SDS011;2427;50.934;6.776;2023-08-20T00:56:20;10.50;;;7.43;;
4825;SDS011;2427;50.934;6.776;2023-08-20T00:58:46;11.20;;;7.60;;
4825;SDS011;2427;50.934;6.776;2023-08-20T01:11:33;9.80;;;7.67;;
4825;SDS011;2427;50.934;6.776;2023-08-20T01:14:15;9.87;;;8.33;;
4825;SDS011;2427;50.934;6.776;2023-08-20T01:16:41;9.50;;;7.43;;
4825;SDS011;2427;50.934;6.776;2023-08-20T01:19:07;10.80;;;8.73;;
4825;SDS011;2427;50.934;6.776;2023-08-20T01:21:44;12.50;;;8.40;;
4825;SDS011;2427;50.934;6.776;2023-08-20T01:24:38;11.33;;;8.13;;
4825;SDS011;2427;50.934;6.776;2023-08-20T01:27:37;10.77;;;7.93;;
4825;SDS011;2427;50.934;6.776;2023-08-20T01:30:10;8.03;;;7.23;;
4825;SDS011;2427;50.934;6.776;2023-08-20T01:32:37;9.57;;;7.20;;
4825;SDS011;2427;50.934;6.776;2023-08-20T01:35:07;8.60;;;7.53;;
4825;SDS011;2427;50.934;6.776;2023-08-20T01:37:39;10.43;;;7.03;;
4825;SDS011;2427;50.934;6.776;2023-08-20T01:40:08;11.00;;;7.73;;
4825;SDS011;2427;50.934;6.776;2023-08-20T01:42:37;11.53;;;7.30;;
4825;SDS011;2427;50.934;6.776;2023-08-20T01:45:04;10.23;;;7.30;;
4825;SDS011;2427;50.934;6.776;2023-08-20T01:47:31;16.77;;;8.10;;
4825;SDS011;2427;50.934;6.776;2023-08-20T01:49:57;10.10;;;7.53;;
4825;SDS011;2427;50.934;6.776;2023-08-20T01:52:23;8.40;;;7.33;;
4825;SDS011;2427;50.934;6.776;2023-08-20T01:54:49;8.13;;;7.33;;
4825;SDS011;2427;50.934;6.776;2023-08-20T01:57:14;9.00;;;7.40;;
4825;SDS011;2427;50.934;6.776;2023-08-20T01:59:40;12.70;;;8.37;;
4825;SDS011;2427;50.934;6.776;2023-08-20T02:02:06;11.30;;;7.50;;
4825;SDS011;2427;50.934;6.776;2023-08-20T02:04:32;10.30;;;7.87;;
4825;SDS011;2427;50.934;6.776;2023-08-20T02:06:58;11.50;;;7.37;;
4825;SDS011;2427;50.934;6.776;2023-08-20T02:09:23;7.03;;;6.33;;
4825;SDS011;2427;50.934;6.776;2023-08-20T02:11:49;10.03;;;7.00;;
4825;SDS011;2427;50.934;6.776;2023-08-20T02:14:15;8.40;;;7.50;;
4825;SDS011;2427;50.934;6.776;2023-08-20T02:16:41;7.50;;;6.53;;
4825;SDS011;2427;50.934;6.776;2023-08-20T02:19:07;9.37;;;7.57;;
4825;SDS011;2427;50.934;6.776;2023-08-20T02:21:33;11.47;;;7.80;;
4825;SDS011;2427;50.934;6.776;2023-08-20T02:23:58;9.20;;;7.10;;
4825;SDS011;2427;50.934;6.776;2023-08-20T02:26:24;9.47;;;8.27;;
4825;SDS011;2427;50.934;6.776;2023-08-20T02:28:50;10.57;;;7.73;;
4825;SDS011;2427;50.934;6.776;2023-08-20T02:31:15;8.90;;;7.77;;
4825;SDS011;2427;50.934;6.776;2023-08-20T02:33:41;10.73;;;8.67;;
4825;SDS011;2427;50.934;6.776;2023-08-20T02:36:06;18.60;;;8.17;;
4825;SDS011;2427;50.934;6.776;2023-08-20T02:38:32;9.53;;;7.60;;
4825;SDS011;2427;50.934;6.776;2023-08-20T02:40:57;9.90;;;8.10;;
4825;SDS011;2427;50.934;6.776;2023-08-20T02:43:23;8.40;;;7.50;;
4825;SDS011;2427;50.934;6.776;2023-08-20T02:45:49;9.23;;;8.03;;
4825;SDS011;2427;50.934;6.776;2023-08-20T02:48:15;12.20;;;8.87;;
4825;SDS011;2427;50.934;6.776;2023-08-20T02:50:40;11.70;;;8.50;;
4825;SDS011;2427;50.934;6.776;2023-08-20T02:53:06;13.53;;;8.27;;
4825;SDS011;2427;50.934;6.776;2023-08-20T02:55:32;8.93;;;8.00;;
4825;SDS011;2427;50.934;6.776;2023-08-20T02:57:58;10.03;;;7.33;;
4825;SDS011;2427;50.934;6.776;2023-08-20T03:00:24;14.10;;;8.27;;
4825;SDS011;2427;50.934;6.776;2023-08-20T03:02:50;11.17;;;8.50;;
4825;SDS011;2427;50.934;6.776;2023-08-20T03:05:15;12.10;;;9.33;;
4825;SDS011;2427;50.934;6.776;2023-08-20T03:07:42;11.30;;;8.43;;
4825;SDS011;2427;50.934;6.776;2023-08-20T03:10:07;10.50;;;8.90;;
4825;SDS011;2427;50.934;6.776;2023-08-20T03:12:33;14.30;;;9.23;;
4825;SDS011;2427;50.934;6.776;2023-08-20T03:14:59;14.20;;;9.23;;
4825;SDS011;2427;50.934;6.776;2023-08-20T03:17:24;16.17;;;10.10;;
4825;SDS011;2427;50.934;6.776;2023-08-20T03:19:59;13.67;;;8.20;;
4825;SDS011;2427;50.934;6.776;2023-08-20T03:22:25;14.20;;;10.73;;
4825;SDS011;2427;50.934;6.776;2023-08-20T03:24:52;10.00;;;8.50;;
4825;SDS011;2427;50.934;6.776;2023-08-20T03:27:18;10.50;;;9.20;;
4825;SDS011;2427;50.934;6.776;2023-08-20T03:29:44;13.30;;;10.30;;
4825;SDS011;2427;50.934;6.776;2023-08-20T03:32:11;12.23;;;8.97;;
4825;SDS011;2427;50.934;6.776;2023-08-20T03:34:36;12.10;;;9.50;;
4825;SDS011;2427;50.934;6.776;2023-08-20T03:37:02;9.70;;;8.67;;
4825;SDS011;2427;50.934;6.776;2023-08-20T03:39:29;14.67;;;8.77;;
4825;SDS011;2427;50.934;6.776;2023-08-20T03:41:54;8.40;;;7.50;;
4825;SDS011;2427;50.934;6.776;2023-08-20T03:44:20;12.83;;;7.90;;
4825;SDS011;2427;50.934;6.776;2023-08-20T03:46:46;8.90;;;7.57;;
4825;SDS011;2427;50.934;6.776;2023-08-20T03:49:11;12.13;;;8.47;;
4825;SDS011;2427;50.934;6.776;2023-08-20T03:51:37;11.60;;;7.90;;
4825;SDS011;2427;50.934;6.776;2023-08-20T03:54:02;17.73;;;9.07;;
4825;SDS011;2427;50.934;6.776;2023-08-20T03:56:28;10.60;;;8.03;;
4825;SDS011;2427;50.934;6.776;2023-08-20T03:58:54;16.17;;;9.20;;
4825;SDS011;2427;50.934;6.776;2023-08-20T04:01:20;12.83;;;10.97;;
4825;SDS011;2427;50.934;6.776;2023-08-20T04:03:46;19.23;;;11.60;;
4825;SDS011;2427;50.934;6.776;2023-08-20T04:06:12;18.77;;;11.83;;
4825;SDS011;2427;50.934;6.776;2023-08-20T04:08:38;17.83;;;12.10;;
4825;SDS011;2427;50.934;6.776;2023-08-20T04:11:03;21.27;;;13.07;;
4825;SDS011;2427;50.934;6.776;2023-08-20T04:13:29;17.90;;;13.57;;
4825;SDS011;2427;50.934;6.776;2023-08-20T04:15:55;20.17;;;14.07;;
4825;SDS011;2427;50.934;6.776;2023-08-20T04:18:21;13.93;;;11.13;;
4825;SDS011;2427;50.934;6.776;2023-08-20T04:20:47;18.73;;;12.30;;
4825;SDS011;2427;50.934;6.776;2023-08-20T04:23:15;17.03;;;11.67;;
4825;SDS011;2427;50.934;6.776;2023-08-20T04:25:41;15.00;;;11.73;;
4825;SDS011;2427;50.934;6.776;2023-08-20T04:28:06;15.57;;;11.70;;
4825;SDS011;2427;50.934;6.776;2023-08-20T04:30:34;19.40;;;12.17;;
4825;SDS011;2427;50.934;6.776;2023-08-20T04:32:59;18.50;;;13.50;;
4825;SDS011;2427;50.934;6.776;2023-08-20T04:35:25;17.83;;;12.57;;
4825;SDS011;2427;50.934;6.776;2023-08-20T04:37:51;17.77;;;12.37;;
4825;SDS011;2427;50.934;6.776;2023-08-20T04:40:16;15.00;;;11.17;;
4825;SDS011;2427;50.934;6.776;2023-08-20T04:42:42;25.73;;;13.00;;
4825;SDS011;2427;50.934;6.776;2023-08-20T04:45:07;17.33;;;11.30;;
4825;SDS011;2427;50.934;6.776;2023-08-20T04:47:33;19.97;;;11.50;;
4825;SDS011;2427;50.934;6.776;2023-08-20T04:49:59;21.63;;;13.27;;
4825;SDS011;2427;50.934;6.776;2023-08-20T04:52:26;19.97;;;13.33;;
4825;SDS011;2427;50.934;6.776;2023-08-20T04:54:51;20.30;;;13.17;;
4825;SDS011;2427;50.934;6.776;2023-08-20T04:57:17;18.63;;;12.97;;
4825;SDS011;2427;50.934;6.776;2023-08-20T04:59:42;20.30;;;12.20;;
4825;SDS011;2427;50.934;6.776;2023-08-20T05:02:10;16.50;;;12.07;;
4825;SDS011;2427;50.934;6.776;2023-08-20T05:04:37;19.00;;;11.97;;
4825;SDS011;2427;50.934;6.776;2023-08-20T05:07:03;25.13;;;11.90;;
4825;SDS011;2427;50.934;6.776;2023-08-20T05:09:29;17.73;;;12.10;;
4825;SDS011;2427;50.934;6.776;2023-08-20T05:11:54;17.13;;;12.10;;
4825;SDS011;2427;50.934;6.776;2023-08-20T05:14:20;15.83;;;10.80;;
4825;SDS011;2427;50.934;6.776;2023-08-20T05:16:45;16.23;;;12.17;;
4825;SDS011;2427;50.934;6.776;2023-08-20T05:19:11;18.73;;;13.27;;
4825;SDS011;2427;50.934;6.776;2023-08-20T05:21:36;22.50;;;12.50;;
4825;SDS011;2427;50.934;6.776;2023-08-20T05:24:02;20.90;;;12.93;;
4825;SDS011;2427;50.934;6.776;2023-08-20T05:26:28;18.00;;;12.73;;
4825;SDS011;2427;50.934;6.776;2023-08-20T05:28:54;17.17;;;11.27;;
4825;SDS011;2427;50.934;6.776;2023-08-20T05:31:19;19.23;;;13.37;;
4825;SDS011;2427;50.934;6.776;2023-08-20T05:33:45;22.37;;;11.50;;
4825;SDS011;2427;50.934;6.776;2023-08-20T05:36:11;16.37;;;10.57;;
4825;SDS011;2427;50.934;6.776;2023-08-20T05:38:36;18.83;;;12.43;;
4825;SDS011;2427;50.934;6.776;2023-08-20T05:41:02;22.40;;;10.70;;
4825;SDS011;2427;50.934;6.776;2023-08-20T05:43:28;14.77;;;11.77;;
4825;SDS011;2427;50.934;6.776;2023-08-20T05:45:53;18.60;;;12.27;;
4825;SDS011;2427;50.934;6.776;2023-08-20T05:48:19;17.20;;;11.60;;
4825;SDS011;2427;50.934;6.776;2023-08-20T05:50:45;20.03;;;12.00;;
4825;SDS011;2427;50.934;6.776;2023-08-20T05:53:10;18.30;;;10.30;;
4825;SDS011;2427;50.934;6.776;2023-08-20T05:55:37;15.00;;;11.47;;
4825;SDS011;2427;50.934;6.776;2023-08-20T05:58:03;15.60;;;11.33;;
4825;SDS011;2427;50.934;6.776;2023-08-20T06:00:28;15.47;;;10.70;;
4825;SDS011;2427;50.934;6.776;2023-08-20T06:02:54;14.17;;;11.17;;
4825;SDS011;2427;50.934;6.776;2023-08-20T06:05:20;17.20;;;12.13;;
4825;SDS011;2427;50.934;6.776;2023-08-20T06:07:45;16.90;;;11.70;;
4825;SDS011;2427;50.934;6.776;2023-08-20T06:10:11;14.80;;;11.10;;
4825;SDS011;2427;50.934;6.776;2023-08-20T06:12:36;20.77;;;12.00;;
4825;SDS011;2427;50.934;6.776;2023-08-20T06:15:03;14.67;;;11.77;;
4825;SDS011;2427;50.934;6.776;2023-08-20T06:17:29;14.20;;;11.83;;
4825;SDS011;2427;50.934;6.776;2023-08-20T06:19:55;17.30;;;12.40;;
4825;SDS011;2427;50.934;6.776;2023-08-20T06:22:20;17.30;;;12.50;;
4825;SDS011;2427;50.934;6.776;2023-08-20T06:24:46;19.00;;;11.67;;
4825;SDS011;2427;50.934;6.776;2023-08-20T06:27:11;18.00;;;11.70;;
4825;SDS011;2427;50.934;6.776;2023-08-20T06:29:40;17.10;;;12.00;;
4825;SDS011;2427;50.934;6.776;2023-08-20T06:32:12;20.03;;;12.03;;
4825;SDS011;2427;50.934;6.776;2023-08-20T06:34:40;17.87;;;12.80;;
4825;SDS011;2427;50.934;6.776;2023-08-20T06:37:11;17.17;;;11.60;;
4825;SDS011;2427;50.934;6.776;2023-08-20T06:39:40;20.13;;;12.90;;
4825;SDS011;2427;50.934;6.776;2023-08-20T06:42:06;17.87;;;12.37;;
4825;SDS011;2427;50.934;6.776;2023-08-20T06:44:31;17.30;;;12.10;;
4825;SDS011;2427;50.934;6.776;2023-08-20T06:46:57;18.27;;;11.93;;
4825;SDS011;2427;50.934;6.776;2023-08-20T06:49:22;16.10;;;12.40;;
4825;SDS011;2427;50.934;6.776;2023-08-20T06:51:48;20.27;;;13.70;;
4825;SDS011;2427;50.934;6.776;2023-08-20T06:54:14;19.27;;;12.40;;
4825;SDS011;2427;50.934;6.776;2023-08-20T06:56:40;18.97;;;12.23;;
4825;SDS011;2427;50.934;6.776;2023-08-20T06:59:06;14.10;;;11.60;;
4825;SDS011;2427;50.934;6.776;2023-08-20T07:01:32;15.37;;;10.60;;
4825;SDS011;2427;50.934;6.776;2023-08-20T07:03:57;15.30;;;9.57;;
4825;SDS011;2427;50.934;6.776;2023-08-20T07:06:26;15.53;;;10.20;;
4825;SDS011;2427;50.934;6.776;2023-08-20T07:08:52;14.80;;;11.63;;
4825;SDS011;2427;50.934;6.776;2023-08-20T07:11:18;16.73;;;11.90;;
4825;SDS011;2427;50.934;6.776;2023-08-20T07:13:48;16.67;;;11.43;;
4825;SDS011;2427;50.934;6.776;2023-08-20T07:16:25;17.80;;;9.70;;
4825;SDS011;2427;50.934;6.776;2023-08-20T07:19:09;16.13;;;10.00;;
4825;SDS011;2427;50.934;6.776;2023-08-20T07:22:01;15.43;;;9.73;;
4825;SDS011;2427;50.934;6.776;2023-08-20T07:24:30;16.43;;;8.90;;
4825;SDS011;2427;50.934;6.776;2023-08-20T07:27:02;14.73;;;8.67;;
4825;SDS011;2427;50.934;6.776;2023-08-20T07:29:35;11.67;;;8.73;;
4825;SDS011;2427;50.934;6.776;2023-08-20T07:32:05;17.03;;;8.63;;
4825;SDS011;2427;50.934;6.776;2023-08-20T07:34:34;22.80;;;8.80;;
4825;SDS011;2427;50.934;6.776;2023-08-20T07:36:59;15.60;;;8.83;;
4825;SDS011;2427;50.934;6.776;2023-08-20T07:39:30;14.17;;;8.80;;
4825;SDS011;2427;50.934;6.776;2023-08-20T07:41:55;18.63;;;10.10;;
4825;SDS011;2427;50.934;6.776;2023-08-20T07:44:21;15.33;;;8.30;;
4825;SDS011;2427;50.934;6.776;2023-08-20T07:46:50;15.23;;;8.03;;
4825;SDS011;2427;50.934;6.776;2023-08-20T07:52:48;13.73;;;9.67;;
4825;SDS011;2427;50.934;6.776;2023-08-20T07:58:17;23.47;;;11.27;;
4825;SDS011;2427;50.934;6.776;2023-08-20T08:03:11;17.43;;;11.40;;
4825;SDS011;2427;50.934;6.776;2023-08-20T08:05:39;13.23;;;9.00;;
4825;SDS011;2427;50.934;6.776;2023-08-20T08:08:17;13.13;;;10.13;;
4825;SDS011;2427;50.934;6.776;2023-08-20T08:10:43;14.30;;;10.20;;
4825;SDS011;2427;50.934;6.776;2023-08-20T08:13:19;17.73;;;10.50;;
4825;SDS011;2427;50.934;6.776;2023-08-20T08:15:46;21.80;;;13.17;;
4825;SDS011;2427;50.934;6.776;2023-08-20T08:18:12;18.30;;;14.17;;
4825;SDS011;2427;50.934;6.776;2023-08-20T08:20:37;17.40;;;13.17;;
4825;SDS011;2427;50.934;6.776;2023-08-20T08:23:03;18.20;;;13.03;;
4825;SDS011;2427;50.934;6.776;2023-08-20T08:25:29;22.53;;;13.70;;
4825;SDS011;2427;50.934;6.776;2023-08-20T08:27:54;18.67;;;12.50;;
4825;SDS011;2427;50.934;6.776;2023-08-20T08:30:20;18.97;;;12.47;;
4825;SDS011;2427;50.934;6.776;2023-08-20T08:32:45;21.50;;;13.10;;
4825;SDS011;2427;50.934;6.776;2023-08-20T08:35:11;21.23;;;13.17;;
4825;SDS011;2427;50.934;6.776;2023-08-20T08:37:37;18.30;;;11.23;;
4825;SDS011;2427;50.934;6.776;2023-08-20T08:40:02;16.60;;;10.60;;
4825;SDS011;2427;50.934;6.776;2023-08-20T08:42:32;19.57;;;11.33;;
4825;SDS011;2427;50.934;6.776;2023-08-20T08:44:59;14.87;;;11.33;;
4825;SDS011;2427;50.934;6.776;2023-08-20T08:47:25;17.33;;;11.57;;
4825;SDS011;2427;50.934;6.776;2023-08-20T08:49:51;13.93;;;10.43;;
4825;SDS011;2427;50.934;6.776;2023-08-20T08:52:19;17.13;;;9.37;;
4825;SDS011;2427;50.934;6.776;2023-08-20T08:54:46;17.23;;;11.17;;
4825;SDS011;2427;50.934;6.776;2023-08-20T08:57:12;19.33;;;11.17;;
4825;SDS011;2427;50.934;6.776;2023-08-20T08:59:39;14.97;;;10.10;;
4825;SDS011;2427;50.934;6.776;2023-08-20T09:02:08;12.23;;;9.47;;
4825;SDS011;2427;50.934;6.776;2023-08-20T09:04:42;16.10;;;9.53;;
4825;SDS011;2427;50.934;6.776;2023-08-20T09:07:11;18.67;;;10.17;;
4825;SDS011;2427;50.934;6.776;2023-08-20T09:09:45;14.40;;;9.97;;
4825;SDS011;2427;50.934;6.776;2023-08-20T09:14:46;18.00;;;10.40;;
4825;SDS011;2427;50.934;6.776;2023-08-20T09:17:13;13.30;;;10.73;;
4825;SDS011;2427;50.934;6.776;2023-08-20T09:19:39;14.57;;;9.63;;
4825;SDS011;2427;50.934;6.776;2023-08-20T09:22:04;11.80;;;9.47;;
4825;SDS011;2427;50.934;6.776;2023-08-20T09:24:34;9.37;;;7.37;;
4825;SDS011;2427;50.934;6.776;2023-08-20T09:27:08;8.80;;;7.43;;
4825;SDS011;2427;50.934;6.776;2023-08-20T09:29:44;10.07;;;8.60;;
4825;SDS011;2427;50.934;6.776;2023-08-20T09:34:48;11.87;;;8.50;;
4825;SDS011;2427;50.934;6.776;2023-08-20T09:37:15;10.00;;;7.50;;
4825;SDS011;2427;50.934;6.776;2023-08-20T09:39:42;17.43;;;7.53;;
4825;SDS011;2427;50.934;6.776;2023-08-20T09:42:08;10.50;;;7.50;;
4825;SDS011;2427;50.934;6.776;2023-08-20T09:44:42;12.93;;;6.30;;
4825;SDS011;2427;50.934;6.776;2023-08-20T09:47:09;9.93;;;7.70;;
4825;SDS011;2427;50.934;6.776;2023-08-20T09:49:40;10.60;;;7.07;;
4825;SDS011;2427;50.934;6.776;2023-08-20T09:52:10;7.00;;;6.13;;
4825;SDS011;2427;50.934;6.776;2023-08-20T09:57:32;10.67;;;7.10;;
4825;SDS011;2427;50.934;6.776;2023-08-20T09:59:58;10.70;;;7.67;;
4825;SDS011;2427;50.934;6.776;2023-08-20T10:02:25;8.00;;;7.23;;
4825;SDS011;2427;50.934;6.776;2023-08-20T10:04:51;9.53;;;6.97;;
4825;SDS011;2427;50.934;6.776;2023-08-20T10:07:17;8.63;;;7.70;;
4825;SDS011;2427;50.934;6.776;2023-08-20T10:09:43;15.93;;;7.40;;
4825;SDS011;2427;50.934;6.776;2023-08-20T10:12:11;9.80;;;8.53;;
4825;SDS011;2427;50.934;6.776;2023-08-20T10:14:38;10.03;;;7.70;;
4825;SDS011;2427;50.934;6.776;2023-08-20T10:17:08;12.63;;;8.47;;
4825;SDS011;2427;50.934;6.776;2023-08-20T10:19:37;8.17;;;6.97;;
4825;SDS011;2427;50.934;6.776;2023-08-20T10:22:03;7.10;;;6.40;;
4825;SDS011;2427;50.934;6.776;2023-08-20T10:24:39;9.13;;;6.20;;
4825;SDS011;2427;50.934;6.776;2023-08-20T10:27:09;8.73;;;6.77;;
4825;SDS011;2427;50.934;6.776;2023-08-20T10:32:10;7.23;;;6.40;;
4825;SDS011;2427;50.934;6.776;2023-08-20T10:34:37;7.90;;;6.80;;
4825;SDS011;2427;50.934;6.776;2023-08-20T10:37:10;9.17;;;6.97;;
4825;SDS011;2427;50.934;6.776;2023-08-20T10:39:38;15.13;;;8.20;;
4825;SDS011;2427;50.934;6.776;2023-08-20T10:44:56;8.43;;;7.30;;
4825;SDS011;2427;50.934;6.776;2023-08-20T10:47:34;10.10;;;7.80;;
4825;SDS011;2427;50.934;6.776;2023-08-20T10:50:07;8.63;;;7.73;;
4825;SDS011;2427;50.934;6.776;2023-08-20T10:52:37;9.63;;;8.03;;
4825;SDS011;2427;50.934;6.776;2023-08-20T10:55:04;8.87;;;7.67;;
4825;SDS011;2427;50.934;6.776;2023-08-20T10:57:34;10.47;;;8.17;;
4825;SDS011;2427;50.934;6.776;2023-08-20T11:00:02;10.03;;;9.03;;
4825;SDS011;2427;50.934;6.776;2023-08-20T11:02:37;9.03;;;8.13;;
4825;SDS011;2427;50.934;6.776;2023-08-20T11:05:17;9.63;;;7.57;;
4825;SDS011;2427;50.934;6.776;2023-08-20T11:07:45;12.33;;;8.17;;
4825;SDS011;2427;50.934;6.776;2023-08-20T11:10:16;9.17;;;7.13;;
4825;SDS011;2427;50.934;6.776;2023-08-20T11:12:43;7.63;;;6.33;;
4825;SDS011;2427;50.934;6.776;2023-08-20T11:15:10;9.57;;;6.80;;
4825;SDS011;2427;50.934;6.776;2023-08-20T11:17:42;10.93;;;7.03;;
4825;SDS011;2427;50.934;6.776;2023-08-20T11:20:09;10.23;;;7.93;;
4825;SDS011;2427;50.934;6.776;2023-08-20T11:22:37;9.60;;;6.67;;
4825;SDS011;2427;50.934;6.776;2023-08-20T11:25:04;7.70;;;6.60;;
4825;SDS011;2427;50.934;6.776;2023-08-20T11:27:29;7.53;;;6.67;;
4825;SDS011;2427;50.934;6.776;2023-08-20T11:29:55;8.80;;;6.80;;
4825;SDS011;2427;50.934;6.776;2023-08-20T11:32:23;7.70;;;6.47;;
4825;SDS011;2427;50.934;6.776;2023-08-20T11:34:49;7.53;;;6.73;;
4825;SDS011;2427;50.934;6.776;2023-08-20T11:37:19;8.20;;;6.60;;
4825;SDS011;2427;50.934;6.776;2023-08-20T11:39:47;6.90;;;6.20;;
4825;SDS011;2427;50.934;6.776;2023-08-20T11:42:14;8.20;;;6.27;;
4825;SDS011;2427;50.934;6.776;2023-08-20T11:44:44;8.20;;;6.47;;
4825;SDS011;2427;50.934;6.776;2023-08-20T11:47:17;9.60;;;6.43;;
4825;SDS011;2427;50.934;6.776;2023-08-20T11:49:43;7.20;;;6.13;;
4825;SDS011;2427;50.934;6.776;2023-08-20T11:52:09;9.80;;;6.80;;
4825;SDS011;2427;50.934;6.776;2023-08-20T11:54:35;6.37;;;5.60;;
4825;SDS011;2427;50.934;6.776;2023-08-20T11:57:02;6.67;;;6.03;;
4825;SDS011;2427;50.934;6.776;2023-08-20T11:59:29;5.90;;;5.20;;
4825;SDS011;2427;50.934;6.776;2023-08-20T12:01:56;6.60;;;4.90;;
4825;SDS011;2427;50.934;6.776;2023-08-20T12:04:23;6.30;;;5.07;;
4825;SDS011;2427;50.934;6.776;2023-08-20T12:09:38;7.97;;;5.80;;
4825;SDS011;2427;50.934;6.776;2023-08-20T12:12:05;7.00;;;5.67;;
4825;SDS011;2427;50.934;6.776;2023-08-20T12:14:31;6.30;;;4.93;;
4825;SDS011;2427;50.934;6.776;2023-08-20T12:16:56;6.50;;;5.73;;
4825;SDS011;2427;50.934;6.776;2023-08-20T12:19:23;6.57;;;5.50;;
4825;SDS011;2427;50.934;6.776;2023-08-20T12:21:49;7.67;;;4.90;;
4825;SDS011;2427;50.934;6.776;2023-08-20T12:24:15;4.70;;;4.30;;
4825;SDS011;2427;50.934;6.776;2023-08-20T12:26:41;7.33;;;5.30;;
4825;SDS011;2427;50.934;6.776;2023-08-20T12:29:07;5.03;;;4.13;;
4825;SDS011;2427;50.934;6.776;2023-08-20T12:31:33;4.97;;;4.57;;
4825;SDS011;2427;50.934;6.776;2023-08-20T12:33:59;7.43;;;4.90;;
4825;SDS011;2427;50.934;6.776;2023-08-20T12:36:25;9.33;;;5.27;;
4825;SDS011;2427;50.934;6.776;2023-08-20T12:38:51;6.67;;;4.80;;
4825;SDS011;2427;50.934;6.776;2023-08-20T12:41:17;5.57;;;3.70;;
4825;SDS011;2427;50.934;6.776;2023-08-20T12:43:44;5.00;;;4.00;;
4825;SDS011;2427;50.934;6.776;2023-08-20T12:46:09;5.53;;;4.17;;
4825;SDS011;2427;50.934;6.776;2023-08-20T12:48:35;5.90;;;4.60;;
4825;SDS011;2427;50.934;6.776;2023-08-20T12:51:01;5.57;;;4.30;;
4825;SDS011;2427;50.934;6.776;2023-08-20T12:53:28;4.23;;;3.83;;
4825;SDS011;2427;50.934;6.776;2023-08-20T12:55:53;5.70;;;4.60;;
4825;SDS011;2427;50.934;6.776;2023-08-20T12:58:19;7.10;;;4.97;;
4825;SDS011;2427;50.934;6.776;2023-08-20T13:00:45;5.83;;;4.77;;
4825;SDS011;2427;50.934;6.776;2023-08-20T13:03:11;5.27;;;4.40;;
4825;SDS011;2427;50.934;6.776;2023-08-20T13:05:37;5.00;;;3.90;;
4825;SDS011;2427;50.934;6.776;2023-08-20T13:08:03;5.43;;;4.03;;
4825;SDS011;2427;50.934;6.776;2023-08-20T13:10:29;4.40;;;4.00;;
4825;SDS011;2427;50.934;6.776;2023-08-20T13:12:55;5.73;;;4.43;;
4825;SDS011;2427;50.934;6.776;2023-08-20T13:15:27;5.63;;;5.10;;
4825;SDS011;2427;50.934;6.776;2023-08-20T13:17:53;5.30;;;4.80;;
4825;SDS011;2427;50.934;6.776;2023-08-20T13:20:19;6.50;;;4.90;;
4825;SDS011;2427;50.934;6.776;2023-08-20T13:22:50;7.93;;;5.20;;
4825;SDS011;2427;50.934;6.776;2023-08-20T13:25:16;4.80;;;4.30;;
4825;SDS011;2427;50.934;6.776;2023-08-20T13:27:43;4.90;;;4.20;;
4825;SDS011;2427;50.934;6.776;2023-08-20T13:30:09;7.40;;;5.07;;
4825;SDS011;2427;50.934;6.776;2023-08-20T13:32:35;4.90;;;3.90;;
4825;SDS011;2427;50.934;6.776;2023-08-20T13:35:01;5.60;;;5.10;;
4825;SDS011;2427;50.934;6.776;2023-08-20T13:37:29;5.07;;;4.57;;
4825;SDS011;2427;50.934;6.776;2023-08-20T13:39:56;4.77;;;4.23;;
4825;SDS011;2427;50.934;6.776;2023-08-20T13:42:22;6.10;;;3.90;;
4825;SDS011;2427;50.934;6.776;2023-08-20T13:44:47;4.87;;;4.13;;
4825;SDS011;2427;50.934;6.776;2023-08-20T13:47:13;4.23;;;3.80;;
4825;SDS011;2427;50.934;6.776;2023-08-20T13:49:38;4.30;;;4.00;;
4825;SDS011;2427;50.934;6.776;2023-08-20T13:52:04;7.23;;;3.77;;
4825;SDS011;2427;50.934;6.776;2023-08-20T13:54:30;5.10;;;4.03;;
4825;SDS011;2427;50.934;6.776;2023-08-20T13:56:55;6.20;;;3.80;;
4825;SDS011;2427;50.934;6.776;2023-08-20T13:59:21;5.93;;;3.83;;
4825;SDS011;2427;50.934;6.776;2023-08-20T14:01:47;6.30;;;4.50;;
4825;SDS011;2427;50.934;6.776;2023-08-20T14:04:13;8.50;;;4.77;;
4825;SDS011;2427;50.934;6.776;2023-08-20T14:06:39;5.60;;;4.17;;
4825;SDS011;2427;50.934;6.776;2023-08-20T14:09:04;5.83;;;4.20;;
4825;SDS011;2427;50.934;6.776;2023-08-20T14:11:30;4.17;;;3.80;;
4825;SDS011;2427;50.934;6.776;2023-08-20T14:13:55;6.13;;;3.90;;
4825;SDS011;2427;50.934;6.776;2023-08-20T14:16:21;5.50;;;4.40;;
4825;SDS011;2427;50.934;6.776;2023-08-20T14:18:47;4.00;;;3.60;;
4825;SDS011;2427;50.934;6.776;2023-08-20T14:21:12;4.23;;;3.93;;
4825;SDS011;2427;50.934;6.776;2023-08-20T14:23:38;5.70;;;4.40;;
4825;SDS011;2427;50.934;6.776;2023-08-20T14:26:05;6.83;;;4.63;;
4825;SDS011;2427;50.934;6.776;2023-08-20T14:28:32;5.13;;;4.30;;
4825;SDS011;2427;50.934;6.776;2023-08-20T14:31:01;5.00;;;4.60;;
4825;SDS011;2427;50.934;6.776;2023-08-20T14:33:28;5.07;;;3.87;;
4825;SDS011;2427;50.934;6.776;2023-08-20T14:35:54;6.60;;;3.90;;
4825;SDS011;2427;50.934;6.776;2023-08-20T14:38:20;4.57;;;3.97;;
4825;SDS011;2427;50.934;6.776;2023-08-20T14:40:45;4.37;;;4.00;;
4825;SDS011;2427;50.934;6.776;2023-08-20T14:43:11;3.77;;;3.40;;
4825;SDS011;2427;50.934;6.776;2023-08-20T14:45:36;5.10;;;3.60;;
4825;SDS011;2427;50.934;6.776;2023-08-20T14:48:02;5.97;;;3.40;;
4825;SDS011;2427;50.934;6.776;2023-08-20T14:50:28;5.00;;;3.50;;
4825;SDS011;2427;50.934;6.776;2023-08-20T14:52:53;3.60;;;3.30;;
4825;SDS011;2427;50.934;6.776;2023-08-20T14:55:19;3.38;;;3.08;;
4825;SDS011;2427;50.934;6.776;2023-08-20T14:57:45;3.80;;;3.40;;
4825;SDS011;2427;50.934;6.776;2023-08-20T15:00:11;3.60;;;3.00;;
4825;SDS011;2427;50.934;6.776;2023-08-20T15:02:42;4.13;;;3.08;;
4825;SDS011;2427;50.934;6.776;2023-08-20T15:05:08;3.80;;;3.40;;
4825;SDS011;2427;50.934;6.776;2023-08-20T15:07:35;4.03;;;3.63;;
4825;SDS011;2427;50.934;6.776;2023-08-20T15:10:00;7.78;;;3.60;;
4825;SDS011;2427;50.934;6.776;2023-08-20T15:12:27;3.65;;;2.95;;
4825;SDS011;2427;50.934;6.776;2023-08-20T15:14:52;8.60;;;3.30;;
4825;SDS011;2427;50.934;6.776;2023-08-20T15:17:18;3.30;;;3.00;;
4825;SDS011;2427;50.934;6.776;2023-08-20T15:19:44;4.03;;;2.95;;
4825;SDS011;2427;50.934;6.776;2023-08-20T15:22:09;6.72;;;3.22;;
4825;SDS011;2427;50.934;6.776;2023-08-20T15:24:35;2.97;;;2.70;;
4825;SDS011;2427;50.934;6.776;2023-08-20T15:27:01;4.15;;;3.28;;
4825;SDS011;2427;50.934;6.776;2023-08-20T15:29:28;2.60;;;2.40;;
4825;SDS011;2427;50.934;6.776;2023-08-20T15:31:53;3.80;;;3.47;;
4825;SDS011;2427;50.934;6.776;2023-08-20T15:34:19;3.53;;;2.72;;
4825;SDS011;2427;50.934;6.776;2023-08-20T15:36:45;3.47;;;3.17;;